x

Half Moon Bay - 24nm Ssw Of San Francisco, Ca (46012) Wave Buoy

4:50am - Fri 6th Mar 2015 All times are PST. -8 hours from GMT.

  • Sig Wave height 4.6ft
  • Swell Direction
  • Peak Period 16s
  • Average Period 10s
  • Wind
    11mph, 13mph gusts
  • Sea Temp 57°f
  • Air Temp 58°f
  • Sea Pressure 1024.1mb
  • Half Moon Bay - 24nm Ssw Of San Francisco, Ca
  • Half Moon Bay - 24nm Ssw Of San Francisco, Ca

More Historic Weather Station data

Upgrade to MSW Pro to gain access to the past 30 days of data for over 8000 Wavebouys and Weather Stations around the globe.

Join Pro

Comparision Forecast

View Surf forecast
   
Fri 03/06 4:50am 4.5ft 16s 10s 11 13 mph 1024.1mb 57f 58f
3:50am 5ft 15s 11s 9 11 mph 1023.9mb 57f 58f
2:50am 3.5ft 15s 9s 9 11 mph 1024.3mb 57f 58f
1:50am 4.5ft 15s 9s 9 11 mph 1024.7mb 57f 58f
12:50am 5ft 16s 10s 9 11 mph 1024.6mb 57f 59f
Thu 03/05 11:50pm 4.5ft 16s 8s 11 13 mph 1024.8mb 58f 59f
10:50pm 4.5ft 16s 9s 13 16 mph 1025mb 58f 59f
9:50pm 5ft 16s 11s 11 16 mph 1025.1mb 58f 58f
8:50pm 4.5ft 15s 10s 11 13 mph 1024.8mb 59f 59f
7:50pm 4.5ft 16s 10s 9 11 mph 1024.6mb 59f 60f
6:50pm 4ft 15s 9s 7 9 mph 1024.3mb 58f 60f
5:50pm 4ft 16s 9s 7
mph
1024.2mb 59f 61f
4:50pm 4ft 16s 9s 7 9 mph 1024.3mb 60f 61f
3:50pm 4.5ft 15s 8s 4 7 mph 1024.3mb 59f 61f
2:50pm 4.5ft 16s 8s 4 7 mph 1024.7mb 60f 60f
1:50pm 4ft 15s 8s 4
mph
1025.1mb 58f 59f
12:50pm 4.5ft 16s 8s 2 4 mph 1025.5mb 58f 59f
11:50am 4.5ft 16s 8s  -  2 mph 1026.2mb 58f 59f
10:50am 4.5ft 16s 8s 4
mph
1026mb 58f 58f
9:50am 4.5ft 15s 8s 4 7 mph 1026.2mb 57f 58f
8:50am 4.5ft 16s 9s 2 4 mph 1025.8mb 57f 58f
7:50am 4.5ft 15s 9s 2
mph
1025.2mb 57f 58f
6:50am 4.5ft 16s 8s 4
mph
1024.4mb 57f 57f
5:50am 5ft 16s 9s 4
mph
1023.8mb 57f 56f
4:50am 4.5ft 16s 9s 4
mph
1023.2mb 57f 56f
3:50am 4.5ft 16s 8s 2 4 mph 1022.9mb 57f 56f
2:50am 4.5ft 16s 8s 4
mph
1022.9mb 57f 56f
1:50am 4.5ft 16s 9s 4 7 mph 1023.1mb 57f 56f
12:50am 4.5ft 16s 8s 7 9 mph 1022.8mb 57f 56f
Wed 03/04 11:50pm 5ft 16s 8s 7
mph
1022.6mb 57f 56f
10:50pm 5ft 16s 8s 7
mph
1022.6mb 57f 56f
9:50pm 5ft 16s 8s 7 9 mph 1022.4mb 57f 56f
8:50pm 5ft 16s 8s 4
mph
1021.9mb 57f 56f
7:50pm 5ft 17s 7s 9 11 mph 1021.4mb 57f 56f
6:50pm 5ft 9s 7s 9
mph
1020.9mb 57f 56f
5:50pm 5.5ft 16s 7s 9 11 mph 1020.5mb 58f 57f
4:50pm 5.5ft 17s 7s 11 13 mph 1020.5mb 58f 57f
3:50pm 6ft 17s 7s 11 13 mph 1020.5mb 58f 57f
2:50pm 6ft 17s 7s 9 11 mph 1020.4mb 59f 58f
1:50pm 6ft 17s 8s 7 9 mph 1020.2mb 60f 57f
12:50pm 6ft 17s 8s 4
mph
1020.5mb 58f 56f
11:50am 6ft 17s 8s 2 4 mph 1020.8mb 58f 56f
10:50am 6ft 8s 7s 2 4 mph 1020.4mb 57f 56f
9:50am 6.5ft 9s 8s 2 4 mph 1020.1mb 57f 55f
8:50am 6.5ft 9s 7s 2 4 mph 1019.7mb 57f 55f
7:50am 7ft 8s 7s 2
mph
1018.8mb 57f 55f
6:50am 6.5ft 8s 7s  -  2 mph 1018mb 57f 54f
5:50am 6ft 8s 7s 2 4 mph 1017.6mb 57f 54f
4:50am 6ft 17s 7s 4 7 mph 1017.1mb 57f 54f
3:50am 6ft 9s 7s 4 7 mph 1016.7mb 57f 54f
2:50am 6ft 7s 7s 7 9 mph 1016.8mb 57f 54f
1:50am 6ft 9s 7s 7 9 mph 1016.9mb 57f 54f
12:50am 6.5ft 19s 7s 9 11 mph 1016.7mb 57f 54f
Tue 03/03 11:50pm 6.5ft 8s 7s 7 11 mph 1016.6mb 57f 55f
10:50pm 6ft 9s 7s 9 11 mph 1016.4mb 57f 54f
9:50pm 6ft 10s 7s 11
mph
1016.3mb 57f 54f
8:50pm 6.5ft 11s 7s 13 18 mph 1015.8mb 57f 55f
7:50pm 6ft 9s 7s 16 20 mph 1015.6mb 57f 55f
6:50pm 7ft 10s 7s 16 20 mph 1015.4mb 57f 55f
5:50pm 7ft 10s 8s 16 18 mph 1015.3mb 57f 55f
4:50pm 6.5ft 10s 7s 13 16 mph 1015.3mb 57f 55f
3:50pm 7.5ft 10s 8s 13 16 mph 1015.6mb 57f 55f
2:50pm 7ft 9s 7s 13 16 mph 1016mb 57f 55f
1:50pm 6.5ft 10s 7s 13 16 mph 1016.4mb 57f 55f
12:50pm 6.5ft 10s 7s 11 13 mph 1017mb 57f 55f
11:50am 7ft 10s 7s 9 11 mph 1017.4mb 57f 55f
10:50am 7.5ft 10s 7s 11 13 mph 1017.4mb 57f 55f
9:50am 6.5ft 10s 7s 11 13 mph 1017.4mb 57f 55f
8:50am 7ft 9s 7s 13 16 mph 1017.2mb 57f 55f
7:50am 7ft 11s 7s 11 13 mph 1016.3mb 57f 55f
6:50am 7ft 9s 7s 11 16 mph 1015.7mb 57f 54f
5:50am 8ft 10s 8s 11 13 mph 1015.5mb 57f 55f
4:50am 8ft 10s 7s 9 11 mph 1015.3mb 57f 55f
3:50am 9ft 10s 8s 7 9 mph 1015.1mb 57f 55f
2:50am 8.5ft 11s 8s  -  2 mph 1015.3mb 57f 55f
1:50am 8ft 10s 8s 4 7 mph 1015.6mb 57f 55f
12:50am 8ft 10s 8s 4
mph
1015.2mb 57f 55f
Mon 03/02 11:50pm 7.5ft 9s 7s 4
mph
1014.9mb 57f 55f
10:50pm 7ft 9s 7s 2 4 mph 1014.5mb 57f 55f
9:50pm 7.5ft 10s 8s 4 9 mph 1013.8mb 57f 55f
8:50pm 8ft 9s 8s 9 11 mph 1013.1mb 57f 55f
7:50pm 7ft 9s 7s 9 13 mph 1012.2mb 57f 55f
6:50pm 8ft 10s 7s 9
mph
1011.1mb 57f 54f
5:50pm 10ft 10s 8s 7 9 mph 1010.3mb 57f 54f
4:50pm 8.5ft 9s 7s  -  2 mph 1009.6mb 57f 55f
3:50pm 9ft 9s 7s 2 4 mph 1009.4mb 57f 55f
2:50pm 8ft 9s 7s 2 4 mph 1009.4mb 57f 53f